Robert Gray Army Air Field Airport
KGRK : now visible

Airfield :











YOU CAN JOIN US ON...

 
LOGIN :

Register | Disclaimer

   EN    FR    IT 

 









Legend :    VFR   Marginal VFR   IFR   Intensive IFR   Very Intensive IFR
Visi :
Ceiling :
>= 8 km
>= 3000ft
5 to 8 km
1000 to 3000 ft
1500m to 5 km
500 to 1000 ft
800 to 1500m
200 to 500 ft
< 800m
< 200 ft
Symbols :   Thunderstorms  Fog  Heavy snow  Heavy precipitations  Wind > 20 kt







- Airport Elevation : 1015 ft
- IATA code : GRK


KGRK - Robert Gray Army Air Field

CURRENT METAR :
  • 252258Z AUTO 35012KT 9SM CLR 28/11 A2989 RMK AO2 SLP115 T02770110

EXPIRED METARs :
  • 252158Z AUTO 34014KT 10SM CLR 28/11 A2988 RMK AO2 SLP111 T02810110
  • 252132Z AUTO 32011KT 10SM CLR 28/12 A2988 RMK AO2 WSHFT 23 SLP111
  • 252108Z AUTO 34012KT 9SM SCT065 28/12 A2988 RMK AO2 WSHFT 04 SLP111
  • 252058Z AUTO 33011KT 10SM FEW065 28/13 A2988 RMK AO2 SLP111 T02760129

TAF TAF KGRK
Valid from the 25 at 16:00 until the 26 at 22:00 UTC


251600Z 2516/2622 31012KT 9999 SKC QNH2982INS
BECMG 2600/2601 03009KT 9999 FEW100 QNH2993INS TX28/2521Z TN14/2612Z
KZHU FIR / North America



MET'MAP, your aeronautical weather chart ! - Copyright ORBIFLY December 2007 - Disclaimer

ORBIFLY MET'MAP TEAM :

Programming & Development : Alexandra Zaïnal
Concept & Development : Baudouin d'Aumeries
Co-Development & Prog : Marc-Olivier Méhu
Technical & hardware support : Manuel Goepfert

Contact : metmap@orbifly.com




SOURCES & CREDITS :

   NOAA       Earth
Advisory